createdAt,value
2016-11-04T00:01:21.421Z,21.9
2016-11-04T00:06:25.839Z,21.9
2016-11-04T00:11:29.925Z,21.9
2016-11-04T00:16:34.353Z,21.9
2016-11-04T00:21:38.437Z,21.9
2016-11-04T00:26:43.196Z,21.9
2016-11-04T00:31:47.279Z,21.9
2016-11-04T00:36:51.371Z,21.8
2016-11-04T00:41:55.790Z,21.8
2016-11-04T00:46:59.875Z,21.8
2016-11-04T00:52:03.968Z,21.8
2016-11-04T00:57:08.390Z,21.8
2016-11-04T01:02:12.812Z,21.8
2016-11-04T01:07:17.235Z,21.8
2016-11-04T01:12:21.328Z,21.8
2016-11-04T01:17:25.425Z,21.8
2016-11-04T01:22:29.846Z,21.8
2016-11-04T01:27:34.267Z,21.8
2016-11-04T01:32:38.356Z,21.7
2016-11-04T01:37:42.778Z,21.7
2016-11-04T01:42:46.871Z,21.7
2016-11-04T01:47:51.295Z,21.7
2016-11-04T01:52:55.384Z,21.7
2016-11-04T01:58:00.146Z,21.7
2016-11-04T02:03:04.238Z,21.7
2016-11-04T02:08:08.324Z,21.7
2016-11-04T02:13:12.408Z,21.7
2016-11-04T02:18:16.831Z,21.7
2016-11-04T02:23:22.258Z,21.7
2016-11-04T02:28:26.678Z,21.7
2016-11-04T02:33:30.763Z,21.6
2016-11-04T02:38:35.180Z,21.6
2016-11-04T02:43:39.267Z,21.6
2016-11-04T02:48:43.346Z,21.6
2016-11-04T02:53:48.114Z,21.6
2016-11-04T02:58:52.538Z,21.6
2016-11-04T03:03:56.631Z,21.6
2016-11-04T03:09:00.712Z,21.6
2016-11-04T03:14:05.465Z,21.6
2016-11-04T03:19:09.547Z,21.6
2016-11-04T03:24:13.638Z,21.6
2016-11-04T03:29:18.048Z,21.6
2016-11-04T03:34:22.804Z,21.6
2016-11-04T03:39:27.567Z,21.6
2016-11-04T03:44:31.989Z,21.6
2016-11-04T03:49:36.739Z,21.6
2016-11-04T03:54:41.155Z,21.6
2016-11-04T03:59:45.585Z,21.6
2016-11-04T04:04:50.010Z,21.6
2016-11-04T04:09:54.763Z,21.5
2016-11-04T04:14:58.853Z,21.5
2016-11-04T04:20:02.945Z,21.5
2016-11-04T04:25:07.033Z,21.5
2016-11-04T04:30:11.454Z,21.5
2016-11-04T04:35:15.875Z,21.5
2016-11-04T04:40:20.628Z,21.6
2016-11-04T04:45:24.716Z,21.6
2016-11-04T04:50:28.805Z,21.6
2016-11-04T04:55:33.232Z,21.6
2016-11-04T05:00:37.998Z,21.6
2016-11-04T05:05:42.422Z,21.6
2016-11-04T05:10:46.845Z,21.6
2016-11-04T05:15:51.271Z,21.6
2016-11-04T05:20:55.701Z,21.6
2016-11-04T05:25:59.789Z,21.6
2016-11-04T05:31:07.188Z,21.6
2016-11-04T05:36:12.320Z,21.6
2016-11-04T05:41:16.788Z,21.7
2016-11-04T05:46:20.875Z,21.7
2016-11-04T05:51:24.967Z,21.7
2016-11-04T05:56:29.098Z,21.8
2016-11-04T06:01:33.861Z,21.8
2016-11-04T06:06:38.295Z,21.9
2016-11-04T06:11:42.387Z,21.9
2016-11-04T06:16:46.817Z,21.9
2016-11-04T06:21:51.240Z,22
2016-11-04T06:26:55.337Z,22
2016-11-04T06:31:59.757Z,22
2016-11-04T06:37:04.510Z,22
2016-11-04T06:42:08.932Z,22
2016-11-04T06:47:13.350Z,22.1
2016-11-04T06:52:17.435Z,22.1
2016-11-04T06:57:21.873Z,22.1
2016-11-04T07:02:25.971Z,22.1
2016-11-04T07:07:30.093Z,22.1
2016-11-04T07:12:34.193Z,22.2
2016-11-04T07:17:38.279Z,22.2
2016-11-04T07:22:42.372Z,22.2
2016-11-04T07:27:46.461Z,22.2
2016-11-04T07:32:50.880Z,22.2
2016-11-04T07:37:54.986Z,22.2
2016-11-04T07:42:59.079Z,22.2
2016-11-04T07:48:03.170Z,22.2
2016-11-04T07:53:07.267Z,22.2
2016-11-04T07:58:11.705Z,22.2
2016-11-04T08:03:15.810Z,22.2
2016-11-04T08:08:19.901Z,22.3
2016-11-04T08:13:23.991Z,22.3
2016-11-04T08:18:28.081Z,22.3
2016-11-04T08:23:32.515Z,22.2
2016-11-04T08:28:37.281Z,22.2
2016-11-04T08:33:41.707Z,22.2
2016-11-04T08:38:46.164Z,22.2
2016-11-04T08:43:50.558Z,22.2
2016-11-04T08:48:54.657Z,22.2
2016-11-04T08:53:58.749Z,22.1
2016-11-04T08:59:03.181Z,22.1
2016-11-04T09:04:07.606Z,22.1
2016-11-04T09:09:12.033Z,22.1
2016-11-04T09:14:16.789Z,22.1
2016-11-04T09:19:20.879Z,22
2016-11-04T09:24:24.982Z,22
2016-11-04T09:29:29.405Z,22
2016-11-04T09:34:34.179Z,22
2016-11-04T09:39:38.281Z,22
2016-11-04T09:44:42.705Z,22
2016-11-04T09:49:46.803Z,22
2016-11-04T09:54:50.893Z,22
2016-11-04T09:59:54.999Z,22
2016-11-04T10:04:59.595Z,22
2016-11-04T10:10:03.680Z,22.1
2016-11-04T10:15:07.794Z,22.1
2016-11-04T10:20:12.556Z,22.1
2016-11-04T10:25:16.986Z,22.1
2016-11-04T10:30:21.412Z,22.1
2016-11-04T10:35:25.512Z,22.1
2016-11-04T10:40:30.280Z,22.1
2016-11-04T10:45:34.364Z,22
2016-11-04T10:50:38.790Z,22.1
2016-11-04T10:55:42.888Z,22.1
2016-11-04T11:00:46.985Z,22.1
2016-11-04T11:05:51.411Z,22
2016-11-04T11:10:56.172Z,21.9
2016-11-04T11:16:00.265Z,21.8
2016-11-04T11:21:05.036Z,21.9
2016-11-04T11:26:09.464Z,22
2016-11-04T11:31:14.227Z,22
2016-11-04T11:36:18.669Z,22
2016-11-04T11:41:23.096Z,22
2016-11-04T11:46:27.528Z,22.1
2016-11-04T11:51:31.957Z,22.1
2016-11-04T11:56:36.389Z,22.2
2016-11-04T12:01:40.484Z,22.2
2016-11-04T12:06:44.920Z,22.3
2016-11-04T12:11:49.488Z,22.4
2016-11-04T12:16:53.686Z,22.4
2016-11-04T12:21:57.779Z,22.5
2016-11-04T12:27:02.214Z,22.6
2016-11-04T12:32:06.978Z,22.6
2016-11-04T12:37:11.409Z,22.6
2016-11-04T12:42:15.835Z,22.6
2016-11-04T12:47:20.262Z,22.6
2016-11-04T12:52:25.025Z,22.6
2016-11-04T12:57:29.455Z,22.6
2016-11-04T13:02:34.221Z,22.6
2016-11-04T13:07:38.313Z,22.6
2016-11-04T13:12:42.407Z,22.6
2016-11-04T13:17:47.169Z,22.6
2016-11-04T13:22:51.264Z,22.6
2016-11-04T13:27:55.366Z,22.6
2016-11-04T13:32:59.463Z,22.5
2016-11-04T13:38:03.599Z,22.6
2016-11-04T13:43:07.686Z,22.6
2016-11-04T13:48:12.452Z,22.6
2016-11-04T13:53:16.881Z,22.6
2016-11-04T13:58:20.978Z,22.6
2016-11-04T14:03:25.410Z,22.7
2016-11-04T14:08:29.507Z,22.7
2016-11-04T14:13:33.674Z,22.7
2016-11-04T14:18:37.788Z,22.7
2016-11-04T14:23:42.125Z,22.7
2016-11-04T14:28:46.216Z,22.7
2016-11-04T14:33:50.644Z,22.7
2016-11-04T14:38:54.748Z,22.7
2016-11-04T14:43:58.858Z,22.6
2016-11-04T14:49:03.307Z,22.6
2016-11-04T14:54:07.407Z,22.6
2016-11-04T14:59:11.835Z,22.6
2016-11-04T15:04:15.922Z,22.6
2016-11-04T15:09:20.354Z,22.6
2016-11-04T15:14:24.807Z,22.6
2016-11-04T15:19:29.258Z,22.6
2016-11-04T15:24:33.687Z,22.6
2016-11-04T15:29:38.124Z,22.6
2016-11-04T15:34:42.423Z,22.5
2016-11-04T15:39:46.853Z,22.4
2016-11-04T15:44:51.617Z,22.3
2016-11-04T15:49:56.040Z,22.2
2016-11-04T15:55:01.151Z,22.1
2016-11-04T16:00:05.266Z,22.1
2016-11-04T16:05:09.708Z,22.1
2016-11-04T16:10:14.816Z,22.2
2016-11-04T16:15:18.913Z,22.3
2016-11-04T16:20:23.349Z,22.3
2016-11-04T16:25:27.788Z,22.4
2016-11-04T16:30:32.216Z,22.4
2016-11-04T16:35:36.633Z,22.5
2016-11-04T16:40:40.726Z,22.5
2016-11-04T16:45:45.153Z,22.6
2016-11-04T16:50:49.585Z,22.6
2016-11-04T16:55:54.348Z,22.6
2016-11-04T17:00:58.449Z,22.6
2016-11-04T17:06:02.538Z,22.6
2016-11-04T17:11:06.651Z,22.7
2016-11-04T17:16:11.087Z,22.7
2016-11-04T17:21:15.644Z,22.7
2016-11-04T17:26:19.749Z,22.7
2016-11-04T17:31:23.841Z,22.7
2016-11-04T17:36:27.957Z,22.6
2016-11-04T17:41:32.728Z,22.6
2016-11-04T17:46:37.502Z,22.6
2016-11-04T17:51:41.595Z,22.6
2016-11-04T17:56:45.692Z,22.6
2016-11-04T18:01:49.787Z,22.6
2016-11-04T18:06:54.566Z,22.6
2016-11-04T18:11:59.020Z,22.6
2016-11-04T18:17:03.114Z,22.6
2016-11-04T18:22:07.558Z,22.5
2016-11-04T18:27:12.006Z,22.5
2016-11-04T18:32:16.469Z,22.5
2016-11-04T18:37:20.889Z,22.5
2016-11-04T18:42:24.987Z,22.5
2016-11-04T18:47:29.091Z,22.5
2016-11-04T18:52:33.867Z,22.5
2016-11-04T18:57:38.635Z,22.5
2016-11-04T19:02:42.729Z,22.5
2016-11-04T19:07:46.819Z,22.5
2016-11-04T19:12:50.907Z,22.5
2016-11-04T19:17:55.667Z,22.5
2016-11-04T19:23:00.433Z,22.5
2016-11-04T19:28:04.531Z,22.6
2016-11-04T19:33:08.620Z,22.6
2016-11-04T19:38:12.716Z,22.6
2016-11-04T19:43:31.763Z,22.6
2016-11-04T19:48:35.863Z,22.6
2016-11-04T19:53:40.625Z,22.6
2016-11-04T19:58:45.051Z,22.6
2016-11-04T20:03:49.223Z,22.6
2016-11-04T20:08:54.439Z,22.6
2016-11-04T20:13:58.809Z,22.6
2016-11-04T20:19:02.918Z,22.6
2016-11-04T20:24:07.012Z,22.6
2016-11-04T20:29:11.803Z,22.7
2016-11-04T20:34:16.296Z,22.6
2016-11-04T20:39:21.132Z,22.7
2016-11-04T20:44:25.225Z,22.6
2016-11-04T20:49:29.659Z,22.6
2016-11-04T20:54:33.754Z,22.6
2016-11-04T20:59:38.171Z,22.6
2016-11-04T21:04:42.260Z,22.6
2016-11-04T21:09:46.353Z,22.6
2016-11-04T21:14:50.446Z,22.6
2016-11-04T21:19:54.890Z,22.6
2016-11-04T21:24:59.014Z,22.6
2016-11-04T21:30:03.449Z,22.6
2016-11-04T21:35:07.546Z,22.6
2016-11-04T21:40:11.980Z,22.6
2016-11-04T21:45:16.072Z,22.6
2016-11-04T21:50:20.161Z,22.5
2016-11-04T21:55:24.255Z,22.5
2016-11-04T22:00:28.681Z,22.5
2016-11-04T22:05:32.778Z,22.5
2016-11-04T22:10:36.859Z,22.5
2016-11-04T22:15:41.620Z,22.4
2016-11-04T22:20:46.929Z,22.4
2016-11-04T22:25:51.691Z,22.4
2016-11-04T22:30:56.115Z,22.4
2016-11-04T22:36:00.218Z,22.4
2016-11-04T22:41:04.687Z,22.4
2016-11-04T22:46:08.788Z,22.4
2016-11-04T22:51:13.559Z,22.4
2016-11-04T22:56:17.657Z,22.3
2016-11-04T23:01:21.748Z,22.3
2016-11-04T23:06:26.182Z,22.3
2016-11-04T23:11:30.276Z,22.3
2016-11-04T23:16:34.364Z,22.3
2016-11-04T23:21:38.791Z,22.2
2016-11-04T23:26:43.215Z,22.2
2016-11-04T23:31:47.311Z,22.2
2016-11-04T23:36:51.405Z,22.2
2016-11-04T23:41:56.170Z,22.1
2016-11-04T23:47:00.252Z,22.1
2016-11-04T23:52:04.684Z,22.1
2016-11-04T23:57:09.124Z,22.1
